sensor_id;sensor_type;location;lat;lon;timestamp;P1;durP1;ratioP1;P2;durP2;ratioP2
68507;SDS011;55510;49.560;19.090;2022-12-08T10:11:52;19.38;;;8.65;;
68507;SDS011;55510;49.560;19.090;2022-12-08T10:18:01;46.40;;;19.85;;
68507;SDS011;55510;49.560;19.090;2022-12-08T10:21:16;27.77;;;10.40;;
68507;SDS011;55510;49.560;19.090;2022-12-08T10:24:25;17.85;;;7.80;;
68507;SDS011;55510;49.560;19.090;2022-12-08T10:27:33;18.27;;;6.47;;
68507;SDS011;55510;49.560;19.090;2022-12-08T10:30:36;10.15;;;4.40;;
68507;SDS011;55510;49.560;19.090;2022-12-08T10:33:36;15.38;;;5.03;;
68507;SDS011;55510;49.560;19.090;2022-12-08T10:39:57;51.97;;;19.08;;
68507;SDS011;55510;49.560;19.090;2022-12-08T10:43:00;28.67;;;11.27;;
68507;SDS011;55510;49.560;19.090;2022-12-08T10:46:37;26.57;;;11.33;;
68507;SDS011;55510;49.560;19.090;2022-12-08T10:49:31;24.80;;;10.55;;
68507;SDS011;55510;49.560;19.090;2022-12-08T10:52:36;25.50;;;11.23;;
68507;SDS011;55510;49.560;19.090;2022-12-08T10:58:45;35.17;;;12.07;;
68507;SDS011;55510;49.560;19.090;2022-12-08T11:01:47;17.43;;;7.37;;
68507;SDS011;55510;49.560;19.090;2022-12-08T11:04:55;15.63;;;5.53;;
68507;SDS011;55510;49.560;19.090;2022-12-08T11:08:01;39.00;;;11.25;;
68507;SDS011;55510;49.560;19.090;2022-12-08T11:11:04;14.38;;;7.45;;
68507;SDS011;55510;49.560;19.090;2022-12-08T11:14:05;14.53;;;6.60;;
68507;SDS011;55510;49.560;19.090;2022-12-08T11:17:08;13.75;;;7.28;;
68507;SDS011;55510;49.560;19.090;2022-12-08T11:23:20;15.03;;;5.67;;
68507;SDS011;55510;49.560;19.090;2022-12-08T11:26:30;16.83;;;7.30;;
68507;SDS011;55510;49.560;19.090;2022-12-08T11:29:34;18.15;;;8.02;;
68507;SDS011;55510;49.560;19.090;2022-12-08T11:32:35;17.00;;;7.53;;
68507;SDS011;55510;49.560;19.090;2022-12-08T11:35:40;52.03;;;21.90;;
68507;SDS011;55510;49.560;19.090;2022-12-08T11:38:47;71.60;;;30.02;;
68507;SDS011;55510;49.560;19.090;2022-12-08T11:41:51;38.08;;;16.95;;
68507;SDS011;55510;49.560;19.090;2022-12-08T11:44:57;27.83;;;13.73;;
68507;SDS011;55510;49.560;19.090;2022-12-08T11:48:04;21.90;;;8.27;;
68507;SDS011;55510;49.560;19.090;2022-12-08T11:51:31;23.63;;;8.68;;
68507;SDS011;55510;49.560;19.090;2022-12-08T11:54:47;26.70;;;10.55;;
68507;SDS011;55510;49.560;19.090;2022-12-08T11:57:53;16.52;;;7.35;;
68507;SDS011;55510;49.560;19.090;2022-12-08T12:00:56;15.35;;;6.65;;
68507;SDS011;55510;49.560;19.090;2022-12-08T12:13:38;20.70;;;10.65;;
68507;SDS011;55510;49.560;19.090;2022-12-08T12:17:04;8.10;;;3.33;;
68507;SDS011;55510;49.560;19.090;2022-12-08T12:20:17;10.03;;;4.10;;
68507;SDS011;55510;49.560;19.090;2022-12-08T12:26:57;6.90;;;3.08;;
68507;SDS011;55510;49.560;19.090;2022-12-08T12:30:00;11.43;;;4.15;;
68507;SDS011;55510;49.560;19.090;2022-12-08T12:33:17;9.55;;;4.07;;
68507;SDS011;55510;49.560;19.090;2022-12-08T12:36:19;8.93;;;3.87;;
68507;SDS011;55510;49.560;19.090;2022-12-08T12:39:22;7.38;;;3.35;;
68507;SDS011;55510;49.560;19.090;2022-12-08T12:42:35;6.75;;;3.00;;
68507;SDS011;55510;49.560;19.090;2022-12-08T12:45:39;6.55;;;3.05;;
68507;SDS011;55510;49.560;19.090;2022-12-08T12:48:42;9.43;;;3.30;;
68507;SDS011;55510;49.560;19.090;2022-12-08T12:51:44;8.30;;;2.93;;
68507;SDS011;55510;49.560;19.090;2022-12-08T12:57:50;9.93;;;3.40;;
68507;SDS011;55510;49.560;19.090;2022-12-08T13:04:12;6.10;;;2.13;;
68507;SDS011;55510;49.560;19.090;2022-12-08T13:07:22;6.82;;;2.80;;
68507;SDS011;55510;49.560;19.090;2022-12-08T13:10:30;7.32;;;2.90;;
68507;SDS011;55510;49.560;19.090;2022-12-08T13:13:55;7.17;;;3.53;;
68507;SDS011;55510;49.560;19.090;2022-12-08T13:16:57;7.07;;;3.40;;
68507;SDS011;55510;49.560;19.090;2022-12-08T13:20:01;9.73;;;4.20;;
68507;SDS011;55510;49.560;19.090;2022-12-08T13:26:30;9.93;;;3.65;;
68507;SDS011;55510;49.560;19.090;2022-12-08T13:29:34;15.83;;;5.73;;
68507;SDS011;55510;49.560;19.090;2022-12-08T13:32:53;10.40;;;3.72;;
68507;SDS011;55510;49.560;19.090;2022-12-08T13:39:29;9.93;;;2.83;;
68507;SDS011;55510;49.560;19.090;2022-12-08T13:42:40;14.50;;;4.37;;
68507;SDS011;55510;49.560;19.090;2022-12-08T13:45:43;9.23;;;3.60;;
68507;SDS011;55510;49.560;19.090;2022-12-08T13:48:47;9.73;;;3.70;;
68507;SDS011;55510;49.560;19.090;2022-12-08T13:51:52;7.28;;;2.45;;
68507;SDS011;55510;49.560;19.090;2022-12-08T13:54:54;14.57;;;3.28;;
68507;SDS011;55510;49.560;19.090;2022-12-08T13:57:55;15.40;;;4.73;;
68507;SDS011;55510;49.560;19.090;2022-12-08T14:04:05;20.15;;;9.25;;
68507;SDS011;55510;49.560;19.090;2022-12-08T14:07:07;16.23;;;6.15;;
68507;SDS011;55510;49.560;19.090;2022-12-08T14:10:19;57.67;;;23.05;;
68507;SDS011;55510;49.560;19.090;2022-12-08T14:13:24;14.37;;;6.80;;
68507;SDS011;55510;49.560;19.090;2022-12-08T14:16:31;11.10;;;3.90;;
68507;SDS011;55510;49.560;19.090;2022-12-08T14:19:37;17.00;;;5.90;;
68507;SDS011;55510;49.560;19.090;2022-12-08T14:22:39;13.90;;;5.03;;
68507;SDS011;55510;49.560;19.090;2022-12-08T14:25:41;13.82;;;4.43;;
68507;SDS011;55510;49.560;19.090;2022-12-08T14:28:47;15.53;;;5.50;;
68507;SDS011;55510;49.560;19.090;2022-12-08T14:31:49;15.70;;;6.05;;
68507;SDS011;55510;49.560;19.090;2022-12-08T14:34:56;14.98;;;5.18;;
68507;SDS011;55510;49.560;19.090;2022-12-08T14:38:01;10.43;;;3.83;;
68507;SDS011;55510;49.560;19.090;2022-12-08T14:41:11;9.15;;;2.70;;
68507;SDS011;55510;49.560;19.090;2022-12-08T14:44:19;11.03;;;3.87;;
68507;SDS011;55510;49.560;19.090;2022-12-08T14:47:27;10.85;;;3.40;;
68507;SDS011;55510;49.560;19.090;2022-12-08T14:50:43;13.90;;;5.50;;
68507;SDS011;55510;49.560;19.090;2022-12-08T14:57:05;7.60;;;2.83;;
68507;SDS011;55510;49.560;19.090;2022-12-08T15:00:07;13.87;;;4.60;;
68507;SDS011;55510;49.560;19.090;2022-12-08T15:03:10;18.85;;;6.72;;
68507;SDS011;55510;49.560;19.090;2022-12-08T15:06:12;20.00;;;7.47;;
68507;SDS011;55510;49.560;19.090;2022-12-08T15:09:14;17.15;;;5.43;;
68507;SDS011;55510;49.560;19.090;2022-12-08T15:12:25;15.90;;;6.30;;
68507;SDS011;55510;49.560;19.090;2022-12-08T15:15:31;9.83;;;3.20;;
68507;SDS011;55510;49.560;19.090;2022-12-08T15:18:45;10.90;;;3.40;;
68507;SDS011;55510;49.560;19.090;2022-12-08T15:22:16;10.07;;;2.58;;
68507;SDS011;55510;49.560;19.090;2022-12-08T15:25:21;11.02;;;3.40;;
68507;SDS011;55510;49.560;19.090;2022-12-08T15:28:24;8.37;;;3.40;;
68507;SDS011;55510;49.560;19.090;2022-12-08T15:31:26;8.20;;;2.13;;
68507;SDS011;55510;49.560;19.090;2022-12-08T15:34:27;8.80;;;2.85;;
68507;SDS011;55510;49.560;19.090;2022-12-08T15:37:28;11.67;;;4.27;;
68507;SDS011;55510;49.560;19.090;2022-12-08T15:40:29;9.57;;;3.83;;
68507;SDS011;55510;49.560;19.090;2022-12-08T15:43:30;12.40;;;4.77;;
68507;SDS011;55510;49.560;19.090;2022-12-08T15:46:31;12.60;;;4.70;;
68507;SDS011;55510;49.560;19.090;2022-12-08T15:49:32;9.50;;;3.90;;
68507;SDS011;55510;49.560;19.090;2022-12-08T15:52:33;7.22;;;3.65;;
68507;SDS011;55510;49.560;19.090;2022-12-08T15:55:35;12.63;;;5.03;;
68507;SDS011;55510;49.560;19.090;2022-12-08T15:58:36;20.77;;;8.00;;
68507;SDS011;55510;49.560;19.090;2022-12-08T16:01:37;10.25;;;3.88;;
68507;SDS011;55510;49.560;19.090;2022-12-08T16:04:38;15.13;;;5.57;;
68507;SDS011;55510;49.560;19.090;2022-12-08T16:07:39;14.73;;;5.07;;
68507;SDS011;55510;49.560;19.090;2022-12-08T16:10:40;15.55;;;4.97;;
68507;SDS011;55510;49.560;19.090;2022-12-08T16:13:41;29.45;;;9.93;;
68507;SDS011;55510;49.560;19.090;2022-12-08T16:16:51;31.80;;;12.37;;
68507;SDS011;55510;49.560;19.090;2022-12-08T16:19:52;25.17;;;9.82;;
68507;SDS011;55510;49.560;19.090;2022-12-08T16:22:54;18.33;;;7.18;;
68507;SDS011;55510;49.560;19.090;2022-12-08T16:25:54;16.93;;;6.40;;
68507;SDS011;55510;49.560;19.090;2022-12-08T16:28:56;29.83;;;11.30;;
68507;SDS011;55510;49.560;19.090;2022-12-08T16:31:56;31.27;;;11.23;;
68507;SDS011;55510;49.560;19.090;2022-12-08T16:34:57;24.42;;;7.70;;
68507;SDS011;55510;49.560;19.090;2022-12-08T16:37:57;26.40;;;8.37;;
68507;SDS011;55510;49.560;19.090;2022-12-08T16:40:59;54.83;;;15.85;;
68507;SDS011;55510;49.560;19.090;2022-12-08T16:44:18;33.05;;;10.85;;
68507;SDS011;55510;49.560;19.090;2022-12-08T16:47:19;38.90;;;12.63;;
68507;SDS011;55510;49.560;19.090;2022-12-08T16:50:24;27.47;;;8.47;;
68507;SDS011;55510;49.560;19.090;2022-12-08T16:53:29;47.00;;;14.55;;
68507;SDS011;55510;49.560;19.090;2022-12-08T16:56:29;45.20;;;13.30;;
68507;SDS011;55510;49.560;19.090;2022-12-08T16:59:30;29.30;;;8.97;;
68507;SDS011;55510;49.560;19.090;2022-12-08T17:02:31;59.53;;;17.67;;
68507;SDS011;55510;49.560;19.090;2022-12-08T17:05:32;57.37;;;18.33;;
68507;SDS011;55510;49.560;19.090;2022-12-08T17:08:33;84.07;;;23.75;;
68507;SDS011;55510;49.560;19.090;2022-12-08T17:11:34;76.38;;;22.60;;
68507;SDS011;55510;49.560;19.090;2022-12-08T17:14:36;58.60;;;18.10;;
68507;SDS011;55510;49.560;19.090;2022-12-08T17:17:37;31.83;;;12.27;;
68507;SDS011;55510;49.560;19.090;2022-12-08T17:20:38;27.15;;;10.52;;
68507;SDS011;55510;49.560;19.090;2022-12-08T17:23:40;27.67;;;10.60;;
68507;SDS011;55510;49.560;19.090;2022-12-08T17:26:40;17.67;;;6.43;;
68507;SDS011;55510;49.560;19.090;2022-12-08T17:29:44;14.82;;;4.45;;
68507;SDS011;55510;49.560;19.090;2022-12-08T17:32:44;14.97;;;4.17;;
68507;SDS011;55510;49.560;19.090;2022-12-08T17:35:49;8.65;;;3.60;;
68507;SDS011;55510;49.560;19.090;2022-12-08T17:38:50;11.57;;;3.75;;
68507;SDS011;55510;49.560;19.090;2022-12-08T17:41:51;15.47;;;5.07;;
68507;SDS011;55510;49.560;19.090;2022-12-08T17:44:51;21.17;;;7.57;;
68507;SDS011;55510;49.560;19.090;2022-12-08T17:47:53;21.87;;;9.40;;
68507;SDS011;55510;49.560;19.090;2022-12-08T17:50:53;22.37;;;7.47;;
68507;SDS011;55510;49.560;19.090;2022-12-08T17:53:54;16.27;;;5.70;;
68507;SDS011;55510;49.560;19.090;2022-12-08T17:56:55;19.38;;;7.78;;
68507;SDS011;55510;49.560;19.090;2022-12-08T17:59:58;17.93;;;9.30;;
68507;SDS011;55510;49.560;19.090;2022-12-08T18:02:59;13.53;;;5.57;;
68507;SDS011;55510;49.560;19.090;2022-12-08T18:06:04;19.27;;;7.57;;
68507;SDS011;55510;49.560;19.090;2022-12-08T18:09:06;16.85;;;8.02;;
68507;SDS011;55510;49.560;19.090;2022-12-08T18:12:07;27.67;;;11.95;;
68507;SDS011;55510;49.560;19.090;2022-12-08T18:15:08;33.27;;;13.33;;
68507;SDS011;55510;49.560;19.090;2022-12-08T18:18:11;26.08;;;9.55;;
68507;SDS011;55510;49.560;19.090;2022-12-08T18:21:12;19.47;;;6.83;;
68507;SDS011;55510;49.560;19.090;2022-12-08T18:24:18;18.65;;;7.60;;
68507;SDS011;55510;49.560;19.090;2022-12-08T18:27:21;16.48;;;7.30;;
68507;SDS011;55510;49.560;19.090;2022-12-08T18:30:22;12.60;;;4.53;;
68507;SDS011;55510;49.560;19.090;2022-12-08T18:33:23;17.90;;;8.73;;
68507;SDS011;55510;49.560;19.090;2022-12-08T18:36:24;15.50;;;6.28;;
68507;SDS011;55510;49.560;19.090;2022-12-08T18:39:26;15.95;;;6.82;;
68507;SDS011;55510;49.560;19.090;2022-12-08T18:42:28;17.37;;;6.07;;
68507;SDS011;55510;49.560;19.090;2022-12-08T18:45:29;16.25;;;5.90;;
68507;SDS011;55510;49.560;19.090;2022-12-08T18:48:30;16.40;;;5.90;;
68507;SDS011;55510;49.560;19.090;2022-12-08T18:51:31;15.55;;;7.55;;
68507;SDS011;55510;49.560;19.090;2022-12-08T18:54:31;14.00;;;4.80;;
68507;SDS011;55510;49.560;19.090;2022-12-08T18:57:32;14.98;;;5.70;;
68507;SDS011;55510;49.560;19.090;2022-12-08T19:00:33;15.20;;;6.17;;
68507;SDS011;55510;49.560;19.090;2022-12-08T19:03:33;15.27;;;5.43;;
68507;SDS011;55510;49.560;19.090;2022-12-08T19:06:37;11.37;;;4.33;;
68507;SDS011;55510;49.560;19.090;2022-12-08T19:09:39;11.57;;;5.22;;
68507;SDS011;55510;49.560;19.090;2022-12-08T19:12:44;13.65;;;5.47;;
68507;SDS011;55510;49.560;19.090;2022-12-08T19:15:48;15.10;;;6.50;;
68507;SDS011;55510;49.560;19.090;2022-12-08T19:18:49;20.13;;;6.07;;
68507;SDS011;55510;49.560;19.090;2022-12-08T19:21:49;21.77;;;7.20;;
68507;SDS011;55510;49.560;19.090;2022-12-08T19:24:50;17.37;;;6.07;;
68507;SDS011;55510;49.560;19.090;2022-12-08T19:27:51;19.58;;;6.85;;
68507;SDS011;55510;49.560;19.090;2022-12-08T19:30:51;24.83;;;8.43;;
68507;SDS011;55510;49.560;19.090;2022-12-08T19:33:52;16.17;;;6.78;;
68507;SDS011;55510;49.560;19.090;2022-12-08T19:36:53;16.23;;;5.63;;
68507;SDS011;55510;49.560;19.090;2022-12-08T19:39:54;13.57;;;6.17;;
68507;SDS011;55510;49.560;19.090;2022-12-08T19:43:20;15.63;;;5.47;;
68507;SDS011;55510;49.560;19.090;2022-12-08T19:46:39;12.30;;;4.93;;
68507;SDS011;55510;49.560;19.090;2022-12-08T19:49:40;17.42;;;6.30;;
68507;SDS011;55510;49.560;19.090;2022-12-08T19:52:41;24.80;;;8.70;;
68507;SDS011;55510;49.560;19.090;2022-12-08T19:55:43;15.80;;;4.95;;
68507;SDS011;55510;49.560;19.090;2022-12-08T19:58:43;12.60;;;4.27;;
68507;SDS011;55510;49.560;19.090;2022-12-08T20:01:44;15.65;;;5.25;;
68507;SDS011;55510;49.560;19.090;2022-12-08T20:04:47;36.75;;;10.35;;
68507;SDS011;55510;49.560;19.090;2022-12-08T20:07:48;33.80;;;8.90;;
68507;SDS011;55510;49.560;19.090;2022-12-08T20:10:49;25.85;;;8.00;;
68507;SDS011;55510;49.560;19.090;2022-12-08T20:13:50;17.85;;;5.30;;
68507;SDS011;55510;49.560;19.090;2022-12-08T20:16:51;18.63;;;5.43;;
68507;SDS011;55510;49.560;19.090;2022-12-08T20:19:52;18.23;;;6.25;;
68507;SDS011;55510;49.560;19.090;2022-12-08T20:22:52;18.07;;;6.90;;
68507;SDS011;55510;49.560;19.090;2022-12-08T20:25:53;18.35;;;5.80;;
68507;SDS011;55510;49.560;19.090;2022-12-08T20:28:53;28.67;;;10.77;;
68507;SDS011;55510;49.560;19.090;2022-12-08T20:31:54;18.77;;;6.63;;
68507;SDS011;55510;49.560;19.090;2022-12-08T20:34:55;17.17;;;5.97;;
68507;SDS011;55510;49.560;19.090;2022-12-08T20:37:56;17.07;;;6.83;;
68507;SDS011;55510;49.560;19.090;2022-12-08T20:40:56;21.55;;;8.38;;
68507;SDS011;55510;49.560;19.090;2022-12-08T20:43:58;29.47;;;9.23;;
68507;SDS011;55510;49.560;19.090;2022-12-08T20:46:58;26.87;;;11.73;;
68507;SDS011;55510;49.560;19.090;2022-12-08T20:49:59;23.57;;;9.13;;
68507;SDS011;55510;49.560;19.090;2022-12-08T20:53:00;29.15;;;12.57;;
68507;SDS011;55510;49.560;19.090;2022-12-08T20:56:00;24.80;;;12.23;;
68507;SDS011;55510;49.560;19.090;2022-12-08T20:59:01;14.87;;;5.33;;
68507;SDS011;55510;49.560;19.090;2022-12-08T21:02:02;28.73;;;8.67;;
68507;SDS011;55510;49.560;19.090;2022-12-08T21:05:03;23.57;;;7.63;;
68507;SDS011;55510;49.560;19.090;2022-12-08T21:08:07;23.08;;;7.40;;
68507;SDS011;55510;49.560;19.090;2022-12-08T21:11:08;24.00;;;8.47;;
68507;SDS011;55510;49.560;19.090;2022-12-08T21:14:09;24.60;;;8.75;;
68507;SDS011;55510;49.560;19.090;2022-12-08T21:17:10;21.33;;;7.95;;
68507;SDS011;55510;49.560;19.090;2022-12-08T21:20:11;19.08;;;7.45;;
68507;SDS011;55510;49.560;19.090;2022-12-08T21:23:12;17.20;;;7.50;;
68507;SDS011;55510;49.560;19.090;2022-12-08T21:26:20;16.23;;;6.30;;
68507;SDS011;55510;49.560;19.090;2022-12-08T21:29:24;13.33;;;6.50;;
68507;SDS011;55510;49.560;19.090;2022-12-08T21:32:25;17.48;;;8.65;;
68507;SDS011;55510;49.560;19.090;2022-12-08T21:35:26;16.20;;;7.97;;
68507;SDS011;55510;49.560;19.090;2022-12-08T21:38:27;22.55;;;7.63;;
68507;SDS011;55510;49.560;19.090;2022-12-08T21:41:27;14.00;;;5.80;;
68507;SDS011;55510;49.560;19.090;2022-12-08T21:44:47;13.82;;;5.13;;
68507;SDS011;55510;49.560;19.090;2022-12-08T21:47:48;12.77;;;4.57;;
68507;SDS011;55510;49.560;19.090;2022-12-08T21:50:49;13.15;;;5.22;;
68507;SDS011;55510;49.560;19.090;2022-12-08T21:53:52;13.45;;;4.70;;
68507;SDS011;55510;49.560;19.090;2022-12-08T21:56:53;14.10;;;5.05;;
68507;SDS011;55510;49.560;19.090;2022-12-08T21:59:54;18.17;;;7.27;;
68507;SDS011;55510;49.560;19.090;2022-12-08T22:02:54;15.40;;;5.75;;
68507;SDS011;55510;49.560;19.090;2022-12-08T22:05:55;17.83;;;6.27;;
68507;SDS011;55510;49.560;19.090;2022-12-08T22:08:56;13.25;;;4.75;;
68507;SDS011;55510;49.560;19.090;2022-12-08T22:11:57;18.50;;;6.07;;
68507;SDS011;55510;49.560;19.090;2022-12-08T22:14:57;14.98;;;4.93;;
68507;SDS011;55510;49.560;19.090;2022-12-08T22:17:58;14.13;;;4.90;;
68507;SDS011;55510;49.560;19.090;2022-12-08T22:20:59;24.37;;;6.67;;
68507;SDS011;55510;49.560;19.090;2022-12-08T22:23:59;29.50;;;9.30;;
68507;SDS011;55510;49.560;19.090;2022-12-08T22:27:01;11.05;;;4.18;;
68507;SDS011;55510;49.560;19.090;2022-12-08T22:30:04;11.90;;;4.45;;
68507;SDS011;55510;49.560;19.090;2022-12-08T22:33:05;9.23;;;3.30;;
68507;SDS011;55510;49.560;19.090;2022-12-08T22:36:06;7.95;;;3.00;;
68507;SDS011;55510;49.560;19.090;2022-12-08T22:39:12;10.13;;;4.00;;
68507;SDS011;55510;49.560;19.090;2022-12-08T22:42:12;14.97;;;4.87;;
68507;SDS011;55510;49.560;19.090;2022-12-08T22:45:14;13.68;;;6.45;;
68507;SDS011;55510;49.560;19.090;2022-12-08T22:48:15;21.40;;;5.80;;
68507;SDS011;55510;49.560;19.090;2022-12-08T22:51:16;12.30;;;4.40;;
68507;SDS011;55510;49.560;19.090;2022-12-08T22:54:18;19.37;;;6.13;;
68507;SDS011;55510;49.560;19.090;2022-12-08T22:57:19;20.90;;;7.13;;
68507;SDS011;55510;49.560;19.090;2022-12-08T23:00:20;21.48;;;6.63;;
68507;SDS011;55510;49.560;19.090;2022-12-08T23:03:23;26.17;;;7.80;;
68507;SDS011;55510;49.560;19.090;2022-12-08T23:06:24;26.03;;;9.23;;
68507;SDS011;55510;49.560;19.090;2022-12-08T23:09:25;25.40;;;10.75;;
68507;SDS011;55510;49.560;19.090;2022-12-08T23:12:26;23.60;;;11.13;;
68507;SDS011;55510;49.560;19.090;2022-12-08T23:15:27;31.00;;;13.25;;
68507;SDS011;55510;49.560;19.090;2022-12-08T23:18:28;19.43;;;7.77;;
68507;SDS011;55510;49.560;19.090;2022-12-08T23:21:28;16.13;;;7.35;;
68507;SDS011;55510;49.560;19.090;2022-12-08T23:24:29;20.10;;;7.70;;
68507;SDS011;55510;49.560;19.090;2022-12-08T23:27:31;17.98;;;7.30;;
68507;SDS011;55510;49.560;19.090;2022-12-08T23:30:32;20.37;;;8.37;;
68507;SDS011;55510;49.560;19.090;2022-12-08T23:33:33;22.88;;;8.32;;
68507;SDS011;55510;49.560;19.090;2022-12-08T23:36:33;20.90;;;7.50;;
68507;SDS011;55510;49.560;19.090;2022-12-08T23:39:34;19.60;;;7.38;;
68507;SDS011;55510;49.560;19.090;2022-12-08T23:42:35;21.13;;;7.93;;
68507;SDS011;55510;49.560;19.090;2022-12-08T23:45:36;23.55;;;8.73;;
68507;SDS011;55510;49.560;19.090;2022-12-08T23:48:36;37.60;;;16.10;;
68507;SDS011;55510;49.560;19.090;2022-12-08T23:51:37;29.88;;;11.68;;
68507;SDS011;55510;49.560;19.090;2022-12-08T23:54:38;25.70;;;9.50;;
68507;SDS011;55510;49.560;19.090;2022-12-08T23:57:39;26.00;;;8.90;;
